Time,TemperatureF,DewpointF,PressureIn,WindDirection,WindDirectionDegrees,WindSpeedMPH,WindSpeedGustMPH,Humidity,HourlyPrecipIn,Conditions,Clouds,dailyrainin,SolarRadiationWatts/m^2,SoftwareType,DateUTC
2013-02-24 00:01:00,35.0,34.0,-100.00,WNW,303,0.0,0.0,98,0.00,,,0.04,0.000000,,2013-02-24 05:01:00,
2013-02-24 00:11:00,35.0,34.0,-100.00,WNW,303,0.0,0.0,98,0.00,,,0.04,0.000000,,2013-02-24 05:11:00,
2013-02-24 00:32:00,33.0,33.0,-100.00,NW,308,0.0,0.0,100,0.00,,,0.04,0.000000,,2013-02-24 05:32:00,
2013-02-24 00:42:00,33.0,33.0,-100.00,NW,308,0.0,0.0,100,0.00,,,0.04,0.000000,,2013-02-24 05:42:00,
2013-02-24 00:52:00,33.0,33.0,-100.00,NW,308,0.0,0.0,100,0.00,,,0.04,0.000000,,2013-02-24 05:52:00,
2013-02-24 01:02:00,33.0,33.0,-100.00,NW,308,0.0,0.0,100,0.00,,,0.04,0.000000,,2013-02-24 06:02:00,
2013-02-24 01:11:00,33.0,33.0,-100.00,NW,308,0.0,0.0,100,0.00,,,0.04,0.000000,,2013-02-24 06:11:00,
2013-02-24 01:32:00,33.0,33.0,-100.00,NW,315,0.0,0.0,100,0.00,,,0.04,0.000000,,2013-02-24 06:32:00,
2013-02-24 01:42:00,33.0,33.0,-100.00,NW,315,0.0,0.0,100,0.00,,,0.04,0.000000,,2013-02-24 06:42:00,
2013-02-24 01:52:00,33.0,33.0,-100.00,NW,315,0.0,0.0,100,0.00,,,0.04,0.000000,,2013-02-24 06:52:00,
2013-02-24 02:01:00,33.0,33.0,-100.00,NW,315,0.0,0.0,100,0.00,,,0.04,0.000000,,2013-02-24 07:01:00,
2013-02-24 02:12:00,33.0,33.0,-100.00,NW,315,0.0,0.0,100,0.00,,,0.04,0.000000,,2013-02-24 07:12:00,
2013-02-24 02:32:00,33.0,33.0,-100.00,NW,320,0.0,0.0,100,0.00,,,0.04,0.000000,,2013-02-24 07:32:00,
2013-02-24 02:42:00,33.0,33.0,-100.00,NW,320,0.0,0.0,100,0.00,,,0.04,0.000000,,2013-02-24 07:42:00,
2013-02-24 02:52:00,33.0,33.0,-100.00,NW,320,0.0,0.0,100,0.00,,,0.04,0.000000,,2013-02-24 07:52:00,
2013-02-24 03:01:00,33.0,33.0,-100.00,NW,320,0.0,0.0,100,0.00,,,0.04,0.000000,,2013-02-24 08:01:00,
2013-02-24 03:11:00,33.0,33.0,-100.00,NW,320,0.0,0.0,100,0.00,,,0.04,0.000000,,2013-02-24 08:11:00,
2013-02-24 03:42:00,33.0,33.0,-100.00,NW,319,0.0,0.0,100,0.00,,,0.04,0.000000,,2013-02-24 08:42:00,
2013-02-24 03:54:00,33.0,33.0,-100.00,NW,319,0.0,0.0,100,0.00,,,0.04,0.000000,,2013-02-24 08:54:00,
2013-02-24 04:02:00,33.0,33.0,-100.00,NW,319,0.0,0.0,100,0.00,,,0.04,0.000000,,2013-02-24 09:02:00,
2013-02-24 04:11:00,33.0,33.0,-100.00,NW,319,0.0,0.0,100,0.00,,,0.04,0.000000,,2013-02-24 09:11:00,
2013-02-24 04:42:00,32.0,32.0,-100.00,NW,318,0.0,0.0,100,0.00,,,0.04,0.000000,,2013-02-24 09:42:00,
2013-02-24 04:52:00,32.0,32.0,-100.00,NW,318,0.0,0.0,100,0.00,,,0.04,0.000000,,2013-02-24 09:52:00,
2013-02-24 05:01:00,32.0,32.0,-100.00,NW,318,0.0,0.0,100,0.00,,,0.04,0.000000,,2013-02-24 10:01:00,
2013-02-24 05:11:00,32.0,32.0,-100.00,NW,318,0.0,0.0,100,0.00,,,0.04,0.000000,,2013-02-24 10:11:00,
2013-02-24 05:42:00,31.0,31.0,-100.00,NW,317,0.0,0.0,100,0.00,,,0.04,0.000000,,2013-02-24 10:42:00,
2013-02-24 05:52:00,31.0,31.0,-100.00,NW,317,0.0,0.0,100,0.00,,,0.04,0.000000,,2013-02-24 10:52:00,
2013-02-24 06:01:00,31.0,31.0,-100.00,NW,317,0.0,0.0,100,0.00,,,0.04,0.000000,,2013-02-24 11:01:00,
2013-02-24 06:11:00,31.0,31.0,-100.00,NW,317,0.0,0.0,100,0.00,,,0.04,0.000000,,2013-02-24 11:11:00,
2013-02-24 06:32:00,30.0,30.0,-100.00,NW,321,0.0,0.0,100,0.00,,,0.04,0.000000,,2013-02-24 11:32:00,
2013-02-24 06:42:00,30.0,30.0,-100.00,NW,321,0.0,0.0,100,0.00,,,0.04,0.000000,,2013-02-24 11:42:00,
2013-02-24 06:53:00,30.0,30.0,-100.00,NW,321,0.0,0.0,100,0.00,,,0.04,0.000000,,2013-02-24 11:53:00,
2013-02-24 07:02:00,30.0,30.0,-100.00,NW,321,0.0,0.0,100,0.00,,,0.04,0.000000,,2013-02-24 12:02:00,
2013-02-24 07:11:00,30.0,30.0,-100.00,NW,321,0.0,0.0,100,0.00,,,0.04,0.000000,,2013-02-24 12:11:00,
2013-02-24 07:15:00,30.0,29.0,-100.00,NW,313,0.0,0.0,97,0.00,,,-99.99,4.000000,,2013-02-24 12:15:00,
2013-02-24 07:33:00,30.0,29.0,-100.00,NW,313,0.0,0.0,97,0.00,,,-99.99,4.000000,,2013-02-24 12:33:00,
2013-02-24 07:46:00,30.0,29.0,-100.00,NW,313,0.0,0.0,97,0.00,,,-99.99,4.000000,,2013-02-24 12:46:00,
2013-02-24 08:45:00,30.0,27.0,-100.00,NW,316,0.0,0.0,88,0.00,,,0.04,85.000000,,2013-02-24 13:45:00,
2013-02-24 08:56:00,30.0,27.0,-100.00,NW,316,0.0,0.0,88,0.00,,,0.04,85.000000,,2013-02-24 13:56:00,
2013-02-24 09:05:00,30.0,27.0,-100.00,NW,316,0.0,0.0,88,0.00,,,0.04,85.000000,,2013-02-24 14:05:00,
2013-02-24 09:14:00,30.0,27.0,-100.00,NW,316,0.0,0.0,88,0.00,,,0.04,85.000000,,2013-02-24 14:14:00,
2013-02-24 09:45:00,32.0,26.0,-100.00,NW,324,0.0,0.0,77,0.00,,,-99.99,182.000000,,2013-02-24 14:45:00,
2013-02-24 09:55:00,32.0,26.0,-100.00,NW,324,0.0,0.0,77,0.00,,,-99.99,182.000000,,2013-02-24 14:55:00,
2013-02-24 10:04:00,32.0,26.0,-100.00,NW,324,0.0,0.0,77,0.00,,,-99.99,182.000000,,2013-02-24 15:04:00,
2013-02-24 10:14:00,32.0,26.0,-100.00,NW,324,0.0,0.0,77,0.00,,,-99.99,182.000000,,2013-02-24 15:14:00,
2013-02-24 10:32:00,30.0,23.0,-100.00,NNW,327,0.0,0.0,74,0.00,,,0.00,151.000000,,2013-02-24 15:32:00,
2013-02-24 10:42:00,30.0,23.0,-100.00,NNW,327,0.0,0.0,74,0.00,,,0.00,151.000000,,2013-02-24 15:42:00,
2013-02-24 10:53:00,30.0,23.0,-100.00,NNW,327,0.0,0.0,74,0.00,,,0.00,151.000000,,2013-02-24 15:53:00,
2013-02-24 11:02:00,30.0,23.0,-100.00,NNW,327,0.0,0.0,74,0.00,,,0.00,151.000000,,2013-02-24 16:02:00,
2013-02-24 11:12:00,30.0,23.0,-100.00,NNW,327,0.0,0.0,74,0.00,,,0.00,151.000000,,2013-02-24 16:12:00,
2013-02-24 11:42:00,32.0,20.0,-100.00,NW,320,0.0,0.0,62,0.00,,,0.00,288.000000,,2013-02-24 16:42:00,
2013-02-24 11:52:00,32.0,20.0,-100.00,NW,320,0.0,0.0,62,0.00,,,0.00,288.000000,,2013-02-24 16:52:00,
2013-02-24 12:01:00,32.0,20.0,-100.00,NW,320,0.0,0.0,62,0.00,,,0.00,288.000000,,2013-02-24 17:01:00,
2013-02-24 12:11:00,32.0,20.0,-100.00,NW,320,0.0,0.0,62,0.00,,,0.00,288.000000,,2013-02-24 17:11:00,
2013-02-24 12:32:00,36.0,23.0,-100.00,NW,318,0.0,0.0,59,0.00,,,0.00,339.000000,,2013-02-24 17:32:00,
2013-02-24 12:42:00,36.0,23.0,-100.00,NW,318,0.0,0.0,59,0.00,,,0.00,339.000000,,2013-02-24 17:42:00,
2013-02-24 12:53:00,36.0,23.0,-100.00,NW,318,0.0,0.0,59,0.00,,,0.00,339.000000,,2013-02-24 17:53:00,
2013-02-24 13:02:00,36.0,23.0,-100.00,NW,318,0.0,0.0,59,0.00,,,0.00,339.000000,,2013-02-24 18:02:00,
2013-02-24 13:11:00,36.0,23.0,-100.00,NW,318,0.0,0.0,59,0.00,,,0.00,339.000000,,2013-02-24 18:11:00,
2013-02-24 13:42:00,37.0,20.0,-100.00,NNW,327,0.0,0.0,50,0.00,,,0.00,448.000000,,2013-02-24 18:42:00,
2013-02-24 13:52:00,37.0,20.0,-100.00,NNW,327,0.0,0.0,50,0.00,,,0.00,448.000000,,2013-02-24 18:52:00,
2013-02-24 14:01:00,37.0,20.0,-100.00,NNW,327,0.0,0.0,50,0.00,,,0.00,448.000000,,2013-02-24 19:01:00,
2013-02-24 14:12:00,37.0,20.0,-100.00,NNW,327,0.0,0.0,50,0.00,,,0.00,448.000000,,2013-02-24 19:12:00,
2013-02-24 14:42:00,40.0,20.0,-100.00,NNW,327,0.0,0.0,44,0.00,,,0.00,629.000000,,2013-02-24 19:42:00,
2013-02-24 14:52:00,40.0,20.0,-100.00,NNW,327,0.0,0.0,44,0.00,,,0.00,629.000000,,2013-02-24 19:52:00,
2013-02-24 15:02:00,40.0,20.0,-100.00,NNW,327,0.0,0.0,44,0.00,,,0.00,629.000000,,2013-02-24 20:02:00,
2013-02-24 15:11:00,40.0,20.0,-100.00,NNW,327,0.0,0.0,44,0.00,,,0.00,629.000000,,2013-02-24 20:11:00,
2013-02-24 15:42:00,33.0,17.0,-100.00,NW,323,0.0,0.0,52,0.00,,,0.00,323.000000,,2013-02-24 20:42:00,
2013-02-24 15:52:00,33.0,17.0,-100.00,NW,323,0.0,0.0,52,0.00,,,0.00,323.000000,,2013-02-24 20:52:00,
2013-02-24 16:02:00,33.0,17.0,-100.00,NW,323,0.0,0.0,52,0.00,,,0.00,323.000000,,2013-02-24 21:02:00,
2013-02-24 16:11:00,33.0,17.0,-100.00,NW,323,0.0,0.0,52,0.00,,,0.00,323.000000,,2013-02-24 21:11:00,
2013-02-24 16:42:00,29.0,20.0,-100.00,NW,325,0.0,0.0,68,0.00,,,0.00,166.000000,,2013-02-24 21:42:00,
2013-02-24 16:52:00,29.0,20.0,-100.00,NW,325,0.0,0.0,68,0.00,,,0.00,166.000000,,2013-02-24 21:52:00,
2013-02-24 17:01:00,29.0,20.0,-100.00,NW,325,0.0,0.0,68,0.00,,,0.00,166.000000,,2013-02-24 22:01:00,
2013-02-24 17:11:00,29.0,20.0,-100.00,NW,325,0.0,0.0,68,0.00,,,0.00,166.000000,,2013-02-24 22:11:00,
2013-02-24 17:42:00,25.0,19.0,-100.00,NW,318,0.0,0.0,78,0.00,,,0.00,86.000000,,2013-02-24 22:42:00,
2013-02-24 17:52:00,25.0,19.0,-100.00,NW,318,0.0,0.0,78,0.00,,,0.00,86.000000,,2013-02-24 22:52:00,
2013-02-24 18:02:00,25.0,19.0,-100.00,NW,318,0.0,0.0,78,0.00,,,0.00,86.000000,,2013-02-24 23:02:00,
2013-02-24 18:11:00,25.0,19.0,-100.00,NW,318,0.0,0.0,78,0.00,,,0.00,86.000000,,2013-02-24 23:11:00,
2013-02-24 18:32:00,24.0,20.0,-100.00,NW,320,0.0,0.0,84,0.00,,,0.00,3.000000,,2013-02-24 23:32:00,
2013-02-24 18:42:00,24.0,20.0,-100.00,NW,320,0.0,0.0,84,0.00,,,0.00,3.000000,,2013-02-24 23:42:00,
2013-02-24 18:52:00,24.0,20.0,-100.00,NW,320,0.0,0.0,84,0.00,,,0.00,3.000000,,2013-02-24 23:52:00,
2013-02-24 19:02:00,24.0,20.0,-100.00,NW,320,0.0,0.0,84,0.00,,,0.00,3.000000,,2013-02-25 00:02:00,
2013-02-24 19:11:00,24.0,20.0,-100.00,NW,320,0.0,0.0,84,0.00,,,0.00,3.000000,,2013-02-25 00:11:00,
2013-02-24 19:42:00,22.0,19.0,-100.00,NW,323,0.0,0.0,88,0.00,,,0.00,0.000000,,2013-02-25 00:42:00,
2013-02-24 19:52:00,22.0,19.0,-100.00,NW,323,0.0,0.0,88,0.00,,,0.00,0.000000,,2013-02-25 00:52:00,
2013-02-24 20:01:00,22.0,19.0,-100.00,NW,323,0.0,0.0,88,0.00,,,0.00,0.000000,,2013-02-25 01:01:00,
2013-02-24 20:11:00,22.0,19.0,-100.00,NW,323,0.0,0.0,88,0.00,,,0.00,0.000000,,2013-02-25 01:11:00,
2013-02-24 20:42:00,22.0,18.0,-100.00,NW,320,0.0,0.0,86,0.00,,,0.00,0.000000,,2013-02-25 01:42:00,
2013-02-24 20:52:00,22.0,18.0,-100.00,NW,320,0.0,0.0,86,0.00,,,0.00,0.000000,,2013-02-25 01:52:00,
2013-02-24 21:01:00,22.0,18.0,-100.00,NW,320,0.0,0.0,86,0.00,,,0.00,0.000000,,2013-02-25 02:01:00,
2013-02-24 21:11:00,22.0,18.0,-100.00,NW,320,0.0,0.0,86,0.00,,,0.00,0.000000,,2013-02-25 02:11:00,
2013-02-24 21:42:00,20.0,12.0,-100.00,NW,319,0.0,0.0,71,0.00,,,0.00,0.000000,,2013-02-25 02:42:00,
2013-02-24 21:52:00,20.0,12.0,-100.00,NW,319,0.0,0.0,71,0.00,,,0.00,0.000000,,2013-02-25 02:52:00,
2013-02-24 22:02:00,20.0,12.0,-100.00,NW,319,0.0,0.0,71,0.00,,,0.00,0.000000,,2013-02-25 03:02:00,
2013-02-24 22:11:00,20.0,12.0,-100.00,NW,319,0.0,0.0,71,0.00,,,0.00,0.000000,,2013-02-25 03:11:00,
2013-02-24 22:32:00,20.0,13.0,-100.00,NW,325,0.0,0.0,74,0.00,,,0.00,0.000000,,2013-02-25 03:32:00,
2013-02-24 22:42:00,20.0,13.0,-100.00,NW,325,0.0,0.0,74,0.00,,,0.00,0.000000,,2013-02-25 03:42:00,
2013-02-24 22:52:00,20.0,13.0,-100.00,NW,325,0.0,0.0,74,0.00,,,0.00,0.000000,,2013-02-25 03:52:00,
2013-02-24 23:02:00,20.0,13.0,-100.00,NW,325,0.0,0.0,74,0.00,,,0.00,0.000000,,2013-02-25 04:02:00,
2013-02-24 23:11:00,20.0,13.0,-100.00,NW,325,0.0,0.0,74,0.00,,,0.00,0.000000,,2013-02-25 04:11:00,
2013-02-24 23:42:00,19.0,13.0,-100.00,NW,320,0.0,0.0,78,0.00,,,0.00,0.000000,,2013-02-25 04:42:00,
2013-02-24 23:52:00,19.0,13.0,-100.00,NW,320,0.0,0.0,78,0.00,,,0.00,0.000000,,2013-02-25 04:52:00,